sensor_id;sensor_type;location;lat;lon;timestamp;pressure;altitude;pressure_sealevel;temperature;humidity
46081;BME280;31821;51.880;-0.518;2023-01-01T00:00:10;99232.34;;;13.42;61.42
46081;BME280;31821;51.880;-0.518;2023-01-01T00:02:36;99249.63;;;13.39;62.21
46081;BME280;31821;51.880;-0.518;2023-01-01T00:05:02;99257.22;;;13.54;61.60
46081;BME280;31821;51.880;-0.518;2023-01-01T00:07:28;99137.34;;;12.93;60.95
46081;BME280;31821;51.880;-0.518;2023-01-01T00:09:54;99261.53;;;13.84;60.32
46081;BME280;31821;51.880;-0.518;2023-01-01T00:12:38;99218.97;;;13.44;61.24
46081;BME280;31821;51.880;-0.518;2023-01-01T00:15:04;99279.41;;;13.42;62.32
46081;BME280;31821;51.880;-0.518;2023-01-01T00:17:29;99192.91;;;12.60;61.46
46081;BME280;31821;51.880;-0.518;2023-01-01T00:19:55;99263.13;;;13.12;61.60
46081;BME280;31821;51.880;-0.518;2023-01-01T00:22:20;99235.50;;;12.99;61.59
46081;BME280;31821;51.880;-0.518;2023-01-01T00:24:46;99210.00;;;12.78;62.01
46081;BME280;31821;51.880;-0.518;2023-01-01T00:27:12;99178.50;;;12.54;60.93
46081;BME280;31821;51.880;-0.518;2023-01-01T00:29:37;99170.88;;;12.63;60.85
46081;BME280;31821;51.880;-0.518;2023-01-01T00:32:03;99285.00;;;12.88;60.84
46081;BME280;31821;51.880;-0.518;2023-01-01T00:34:29;99236.28;;;12.71;60.71
46081;BME280;31821;51.880;-0.518;2023-01-01T00:36:56;99216.50;;;12.57;60.60
46081;BME280;31821;51.880;-0.518;2023-01-01T00:39:21;99301.34;;;12.94;60.56
46081;BME280;31821;51.880;-0.518;2023-01-01T00:41:48;99254.06;;;12.58;59.27
46081;BME280;31821;51.880;-0.518;2023-01-01T00:44:14;99259.66;;;12.74;59.99
46081;BME280;31821;51.880;-0.518;2023-01-01T00:46:40;99305.13;;;13.01;59.72
46081;BME280;31821;51.880;-0.518;2023-01-01T00:49:06;99229.88;;;12.55;60.23
46081;BME280;31821;51.880;-0.518;2023-01-01T00:51:31;99258.06;;;12.73;59.69
46081;BME280;31821;51.880;-0.518;2023-01-01T00:53:57;99264.53;;;12.65;60.43
46081;BME280;31821;51.880;-0.518;2023-01-01T00:56:23;99294.19;;;12.93;59.27
46081;BME280;31821;51.880;-0.518;2023-01-01T00:58:49;99323.34;;;13.02;60.14
46081;BME280;31821;51.880;-0.518;2023-01-01T01:01:15;99292.09;;;12.61;59.82
46081;BME280;31821;51.880;-0.518;2023-01-01T01:03:40;99321.22;;;13.24;58.83
46081;BME280;31821;51.880;-0.518;2023-01-01T01:06:07;99316.34;;;12.93;60.53
46081;BME280;31821;51.880;-0.518;2023-01-01T01:08:35;99297.44;;;12.82;60.03
46081;BME280;31821;51.880;-0.518;2023-01-01T01:11:09;99331.06;;;13.09;60.34
46081;BME280;31821;51.880;-0.518;2023-01-01T01:13:35;99253.19;;;12.82;59.94
46081;BME280;31821;51.880;-0.518;2023-01-01T01:16:07;99328.69;;;13.24;59.68
46081;BME280;31821;51.880;-0.518;2023-01-01T01:18:33;99293.50;;;12.96;59.69
46081;BME280;31821;51.880;-0.518;2023-01-01T01:20:58;99289.31;;;12.73;61.14
46081;BME280;31821;51.880;-0.518;2023-01-01T01:23:24;99313.13;;;12.91;59.63
46081;BME280;31821;51.880;-0.518;2023-01-01T01:25:50;99332.25;;;12.96;60.63
46081;BME280;31821;51.880;-0.518;2023-01-01T01:28:16;99301.16;;;12.74;61.15
46081;BME280;31821;51.880;-0.518;2023-01-01T01:30:41;99302.44;;;12.77;60.00
46081;BME280;31821;51.880;-0.518;2023-01-01T01:33:07;99314.19;;;12.49;60.73
46081;BME280;31821;51.880;-0.518;2023-01-01T01:35:32;99286.56;;;12.49;60.65
46081;BME280;31821;51.880;-0.518;2023-01-01T01:37:58;99206.34;;;12.20;59.34
46081;BME280;31821;51.880;-0.518;2023-01-01T01:40:25;99367.34;;;13.20;59.50
46081;BME280;31821;51.880;-0.518;2023-01-01T01:42:51;99316.38;;;12.68;58.95
46081;BME280;31821;51.880;-0.518;2023-01-01T01:45:17;99407.25;;;13.19;59.94
46081;BME280;31821;51.880;-0.518;2023-01-01T01:47:52;99408.28;;;13.27;58.61
46081;BME280;31821;51.880;-0.518;2023-01-01T01:50:27;99364.44;;;12.51;59.27
46081;BME280;31821;51.880;-0.518;2023-01-01T01:53:10;99426.66;;;12.94;60.33
46081;BME280;31821;51.880;-0.518;2023-01-01T01:55:40;99327.69;;;12.38;58.64
46081;BME280;31821;51.880;-0.518;2023-01-01T01:58:09;99358.34;;;12.70;58.87
46081;BME280;31821;51.880;-0.518;2023-01-01T02:00:35;99429.38;;;13.31;58.44
46081;BME280;31821;51.880;-0.518;2023-01-01T02:03:05;99417.31;;;12.86;58.36
46081;BME280;31821;51.880;-0.518;2023-01-01T02:05:32;99360.63;;;12.31;59.33
46081;BME280;31821;51.880;-0.518;2023-01-01T02:07:59;99439.22;;;13.04;58.50
46081;BME280;31821;51.880;-0.518;2023-01-01T02:10:26;99384.13;;;12.86;58.14
46081;BME280;31821;51.880;-0.518;2023-01-01T02:12:52;99356.03;;;12.47;57.44
46081;BME280;31821;51.880;-0.518;2023-01-01T02:15:18;99452.94;;;12.76;58.77
46081;BME280;31821;51.880;-0.518;2023-01-01T02:17:55;99449.56;;;12.45;59.11
46081;BME280;31821;51.880;-0.518;2023-01-01T02:26:21;99474.56;;;12.15;59.42
46081;BME280;31821;51.880;-0.518;2023-01-01T02:34:24;99475.38;;;12.49;57.76
46081;BME280;31821;51.880;-0.518;2023-01-01T02:36:53;99416.63;;;12.06;58.52
46081;BME280;31821;51.880;-0.518;2023-01-01T02:39:24;99476.84;;;12.47;58.47
46081;BME280;31821;51.880;-0.518;2023-01-01T02:41:53;99436.97;;;12.23;57.25
46081;BME280;31821;51.880;-0.518;2023-01-01T02:44:21;99496.19;;;12.34;58.65
46081;BME280;31821;51.880;-0.518;2023-01-01T02:46:49;99468.56;;;12.13;59.16
46081;BME280;31821;51.880;-0.518;2023-01-01T02:49:15;99415.16;;;11.88;57.54
46081;BME280;31821;51.880;-0.518;2023-01-01T02:54:46;99486.44;;;12.49;58.14
46081;BME280;31821;51.880;-0.518;2023-01-01T02:57:35;99499.69;;;12.56;57.33
46081;BME280;31821;51.880;-0.518;2023-01-01T03:03:26;99514.88;;;12.16;58.23
46081;BME280;31821;51.880;-0.518;2023-01-01T03:15:09;99521.50;;;12.03;59.25
46081;BME280;31821;51.880;-0.518;2023-01-01T03:18:07;99497.84;;;11.93;58.85
46081;BME280;31821;51.880;-0.518;2023-01-01T03:20:37;99520.53;;;11.77;59.85
46081;BME280;31821;51.880;-0.518;2023-01-01T03:23:11;99473.28;;;11.91;58.61
46081;BME280;31821;51.880;-0.518;2023-01-01T03:25:45;99514.09;;;12.16;58.21
46081;BME280;31821;51.880;-0.518;2023-01-01T03:28:16;99499.31;;;12.11;58.67
46081;BME280;31821;51.880;-0.518;2023-01-01T03:30:44;99490.44;;;11.85;58.73
46081;BME280;31821;51.880;-0.518;2023-01-01T03:33:16;99454.97;;;11.87;58.74
46081;BME280;31821;51.880;-0.518;2023-01-01T03:35:52;99531.13;;;11.96;59.51
46081;BME280;31821;51.880;-0.518;2023-01-01T03:38:21;99547.91;;;12.13;59.72
46081;BME280;31821;51.880;-0.518;2023-01-01T03:40:50;99519.75;;;11.98;58.86
46081;BME280;31821;51.880;-0.518;2023-01-01T03:43:34;99489.81;;;11.79;58.55
46081;BME280;31821;51.880;-0.518;2023-01-01T03:46:04;99517.41;;;12.09;59.12
46081;BME280;31821;51.880;-0.518;2023-01-01T03:48:31;99532.41;;;11.99;59.59
46081;BME280;31821;51.880;-0.518;2023-01-01T03:51:24;99453.03;;;11.87;58.95
46081;BME280;31821;51.880;-0.518;2023-01-01T03:53:54;99532.06;;;12.01;59.53
46081;BME280;31821;51.880;-0.518;2023-01-01T03:56:38;99528.69;;;12.16;58.60
46081;BME280;31821;51.880;-0.518;2023-01-01T04:01:46;99554.88;;;11.98;59.26
46081;BME280;31821;51.880;-0.518;2023-01-01T04:04:14;99533.94;;;11.88;59.65
46081;BME280;31821;51.880;-0.518;2023-01-01T04:06:40;99562.66;;;12.17;58.06
46081;BME280;31821;51.880;-0.518;2023-01-01T04:09:13;99467.72;;;11.58;58.58
46081;BME280;31821;51.880;-0.518;2023-01-01T04:11:43;99572.06;;;11.94;58.71
46081;BME280;31821;51.880;-0.518;2023-01-01T04:14:41;99498.16;;;11.70;59.67
46081;BME280;31821;51.880;-0.518;2023-01-01T04:17:08;99511.41;;;11.56;58.92
46081;BME280;31821;51.880;-0.518;2023-01-01T04:19:34;99589.66;;;11.90;60.19
46081;BME280;31821;51.880;-0.518;2023-01-01T04:22:00;99462.72;;;11.30;59.29
46081;BME280;31821;51.880;-0.518;2023-01-01T04:24:26;99574.81;;;12.03;58.91
46081;BME280;31821;51.880;-0.518;2023-01-01T04:26:52;99574.88;;;11.86;59.83
46081;BME280;31821;51.880;-0.518;2023-01-01T04:29:18;99583.34;;;11.89;58.78
46081;BME280;31821;51.880;-0.518;2023-01-01T04:31:44;99547.31;;;11.56;59.56
46081;BME280;31821;51.880;-0.518;2023-01-01T04:34:10;99533.47;;;11.64;58.58
46081;BME280;31821;51.880;-0.518;2023-01-01T04:36:35;99503.13;;;11.34;58.59
46081;BME280;31821;51.880;-0.518;2023-01-01T04:39:01;99493.78;;;11.48;58.23
46081;BME280;31821;51.880;-0.518;2023-01-01T04:41:26;99540.25;;;11.67;58.71
46081;BME280;31821;51.880;-0.518;2023-01-01T04:43:52;99565.38;;;12.04;58.92
46081;BME280;31821;51.880;-0.518;2023-01-01T04:46:19;99566.53;;;11.73;58.98
46081;BME280;31821;51.880;-0.518;2023-01-01T04:48:45;99582.03;;;11.87;58.69
46081;BME280;31821;51.880;-0.518;2023-01-01T04:51:12;99468.38;;;11.33;57.73
46081;BME280;31821;51.880;-0.518;2023-01-01T04:53:38;99537.75;;;11.53;58.54
46081;BME280;31821;51.880;-0.518;2023-01-01T04:56:11;99543.97;;;11.71;58.25
46081;BME280;31821;51.880;-0.518;2023-01-01T04:58:39;99506.75;;;11.47;57.45
46081;BME280;31821;51.880;-0.518;2023-01-01T05:01:06;99602.50;;;12.37;57.39
46081;BME280;31821;51.880;-0.518;2023-01-01T05:03:32;99600.16;;;11.96;58.25
46081;BME280;31821;51.880;-0.518;2023-01-01T05:06:01;99553.56;;;11.95;58.63
46081;BME280;31821;51.880;-0.518;2023-01-01T05:08:28;99592.25;;;12.16;57.64
46081;BME280;31821;51.880;-0.518;2023-01-01T05:10:59;99572.97;;;12.07;58.05
46081;BME280;31821;51.880;-0.518;2023-01-01T05:13:25;99540.88;;;11.73;57.99
46081;BME280;31821;51.880;-0.518;2023-01-01T05:15:50;99576.97;;;11.89;58.43
46081;BME280;31821;51.880;-0.518;2023-01-01T05:18:15;99543.22;;;11.62;58.05
46081;BME280;31821;51.880;-0.518;2023-01-01T05:20:41;99534.66;;;11.55;58.31
46081;BME280;31821;51.880;-0.518;2023-01-01T05:23:07;99581.13;;;12.04;57.37
46081;BME280;31821;51.880;-0.518;2023-01-01T05:25:32;99556.03;;;11.67;57.32
46081;BME280;31821;51.880;-0.518;2023-01-01T05:27:58;99544.72;;;11.59;57.67
46081;BME280;31821;51.880;-0.518;2023-01-01T05:30:23;99540.59;;;11.65;57.10
46081;BME280;31821;51.880;-0.518;2023-01-01T05:32:49;99562.59;;;11.53;57.28
46081;BME280;31821;51.880;-0.518;2023-01-01T05:35:14;99602.31;;;11.91;57.34
46081;BME280;31821;51.880;-0.518;2023-01-01T05:37:40;99528.38;;;11.45;57.27
46081;BME280;31821;51.880;-0.518;2023-01-01T05:40:05;99609.50;;;12.13;55.59
46081;BME280;31821;51.880;-0.518;2023-01-01T05:42:31;99561.19;;;11.98;55.22
46081;BME280;31821;51.880;-0.518;2023-01-01T05:44:57;99616.25;;;11.73;53.92
46081;BME280;31821;51.880;-0.518;2023-01-01T05:47:24;99602.63;;;11.68;52.74
46081;BME280;31821;51.880;-0.518;2023-01-01T05:49:49;99656.44;;;11.92;52.03
46081;BME280;31821;51.880;-0.518;2023-01-01T05:52:15;99649.94;;;11.88;52.12
46081;BME280;31821;51.880;-0.518;2023-01-01T05:54:40;99588.88;;;11.59;50.47
46081;BME280;31821;51.880;-0.518;2023-01-01T05:57:06;99589.47;;;11.35;51.94
46081;BME280;31821;51.880;-0.518;2023-01-01T05:59:31;99587.38;;;11.32;51.19
46081;BME280;31821;51.880;-0.518;2023-01-01T06:01:57;99680.81;;;11.90;51.98
46081;BME280;31821;51.880;-0.518;2023-01-01T06:04:22;99645.81;;;11.73;50.56
46081;BME280;31821;51.880;-0.518;2023-01-01T06:06:48;99639.03;;;11.61;50.25
46081;BME280;31821;51.880;-0.518;2023-01-01T06:09:13;99693.00;;;11.89;51.01
46081;BME280;31821;51.880;-0.518;2023-01-01T06:11:38;99675.78;;;11.53;50.49
46081;BME280;31821;51.880;-0.518;2023-01-01T06:14:04;99669.84;;;11.33;51.47
46081;BME280;31821;51.880;-0.518;2023-01-01T06:16:30;99709.25;;;11.52;50.99
46081;BME280;31821;51.880;-0.518;2023-01-01T06:18:55;99637.94;;;11.15;51.96
46081;BME280;31821;51.880;-0.518;2023-01-01T06:21:24;99631.97;;;10.95;52.03
46081;BME280;31821;51.880;-0.518;2023-01-01T06:23:50;99645.38;;;11.14;53.02
46081;BME280;31821;51.880;-0.518;2023-01-01T06:26:24;99718.09;;;11.66;53.27
46081;BME280;31821;51.880;-0.518;2023-01-01T06:28:50;99728.44;;;11.30;54.58
46081;BME280;31821;51.880;-0.518;2023-01-01T06:31:19;99655.25;;;11.33;53.42
46081;BME280;31821;51.880;-0.518;2023-01-01T06:33:45;99723.41;;;11.32;54.78
46081;BME280;31821;51.880;-0.518;2023-01-01T06:36:13;99642.19;;;10.95;54.05
46081;BME280;31821;51.880;-0.518;2023-01-01T06:38:41;99655.47;;;11.19;55.15
46081;BME280;31821;51.880;-0.518;2023-01-01T06:41:10;99638.63;;;10.85;56.09
46081;BME280;31821;51.880;-0.518;2023-01-01T06:43:36;99721.72;;;11.58;55.68
46081;BME280;31821;51.880;-0.518;2023-01-01T06:46:18;99677.69;;;11.23;56.26
46081;BME280;31821;51.880;-0.518;2023-01-01T06:48:45;99690.34;;;11.24;57.69
46081;BME280;31821;51.880;-0.518;2023-01-01T06:51:19;99753.41;;;11.52;57.22
46081;BME280;31821;51.880;-0.518;2023-01-01T06:53:47;99759.94;;;11.47;58.51
46081;BME280;31821;51.880;-0.518;2023-01-01T06:56:12;99758.09;;;11.60;58.70
46081;BME280;31821;51.880;-0.518;2023-01-01T06:58:38;99729.41;;;11.43;58.65
46081;BME280;31821;51.880;-0.518;2023-01-01T07:01:04;99756.91;;;11.78;58.43
46081;BME280;31821;51.880;-0.518;2023-01-01T07:03:30;99720.69;;;11.24;59.58
46081;BME280;31821;51.880;-0.518;2023-01-01T07:05:55;99779.31;;;11.77;58.66
46081;BME280;31821;51.880;-0.518;2023-01-01T07:08:21;99766.19;;;11.65;59.68
46081;BME280;31821;51.880;-0.518;2023-01-01T07:10:46;99783.22;;;11.76;58.66
46081;BME280;31821;51.880;-0.518;2023-01-01T07:13:12;99760.50;;;11.70;59.23
46081;BME280;31821;51.880;-0.518;2023-01-01T07:15:37;99767.31;;;11.73;58.91
46081;BME280;31821;51.880;-0.518;2023-01-01T07:18:03;99722.91;;;11.39;59.07
46081;BME280;31821;51.880;-0.518;2023-01-01T07:20:28;99788.47;;;11.60;59.30
46081;BME280;31821;51.880;-0.518;2023-01-01T07:22:54;99701.63;;;11.48;58.97
46081;BME280;31821;51.880;-0.518;2023-01-01T07:25:19;99762.69;;;12.03;57.29
46081;BME280;31821;51.880;-0.518;2023-01-01T07:27:45;99734.75;;;11.48;58.20
46081;BME280;31821;51.880;-0.518;2023-01-01T07:30:10;99719.34;;;11.39;58.28
46081;BME280;31821;51.880;-0.518;2023-01-01T07:32:36;99676.00;;;11.30;57.43
46081;BME280;31821;51.880;-0.518;2023-01-01T07:35:02;99796.28;;;12.14;58.45
46081;BME280;31821;51.880;-0.518;2023-01-01T07:37:27;99785.19;;;12.23;57.46
46081;BME280;31821;51.880;-0.518;2023-01-01T07:39:53;99826.72;;;11.88;58.77
46081;BME280;31821;51.880;-0.518;2023-01-01T07:42:18;99810.78;;;11.93;58.50
46081;BME280;31821;51.880;-0.518;2023-01-01T07:44:43;99825.78;;;12.31;57.26
46081;BME280;31821;51.880;-0.518;2023-01-01T07:47:21;99786.66;;;12.20;56.93
46081;BME280;31821;51.880;-0.518;2023-01-01T07:49:47;99741.59;;;11.81;57.72
46081;BME280;31821;51.880;-0.518;2023-01-01T07:52:14;99788.69;;;11.93;58.10
46081;BME280;31821;51.880;-0.518;2023-01-01T07:54:39;99765.97;;;11.88;57.44
46081;BME280;31821;51.880;-0.518;2023-01-01T07:57:05;99802.84;;;11.83;57.82
46081;BME280;31821;51.880;-0.518;2023-01-01T07:59:30;99805.25;;;12.02;55.87
46081;BME280;31821;51.880;-0.518;2023-01-01T08:01:56;99748.69;;;11.52;56.63
46081;BME280;31821;51.880;-0.518;2023-01-01T08:04:21;99739.00;;;11.37;57.48
46081;BME280;31821;51.880;-0.518;2023-01-01T08:06:47;99779.06;;;11.61;56.15
46081;BME280;31821;51.880;-0.518;2023-01-01T08:09:12;99761.56;;;11.87;55.86
46081;BME280;31821;51.880;-0.518;2023-01-01T08:11:38;99802.03;;;12.30;54.35
46081;BME280;31821;51.880;-0.518;2023-01-01T08:14:03;99765.88;;;11.67;54.94
46081;BME280;31821;51.880;-0.518;2023-01-01T08:16:29;99769.28;;;11.72;54.33
46081;BME280;31821;51.880;-0.518;2023-01-01T08:18:54;99795.28;;;11.62;53.40
46081;BME280;31821;51.880;-0.518;2023-01-01T08:21:20;99756.31;;;11.55;52.80
46081;BME280;31821;51.880;-0.518;2023-01-01T08:23:45;99706.25;;;11.09;52.36
46081;BME280;31821;51.880;-0.518;2023-01-01T08:26:16;99781.53;;;11.36;52.17
46081;BME280;31821;51.880;-0.518;2023-01-01T08:28:43;99854.53;;;11.74;52.63
46081;BME280;31821;51.880;-0.518;2023-01-01T08:31:09;99852.75;;;11.69;53.08
46081;BME280;31821;51.880;-0.518;2023-01-01T08:33:34;99811.13;;;11.83;51.50
46081;BME280;31821;51.880;-0.518;2023-01-01T08:36:00;99817.06;;;11.64;52.20
46081;BME280;31821;51.880;-0.518;2023-01-01T08:38:26;99718.78;;;10.98;52.21
46081;BME280;31821;51.880;-0.518;2023-01-01T08:40:52;99796.97;;;11.28;52.81
46081;BME280;31821;51.880;-0.518;2023-01-01T08:43:17;99817.63;;;11.87;52.21
46081;BME280;31821;51.880;-0.518;2023-01-01T08:45:43;99815.38;;;11.89;51.80
46081;BME280;31821;51.880;-0.518;2023-01-01T08:48:09;99794.00;;;11.60;52.14
46081;BME280;31821;51.880;-0.518;2023-01-01T08:50:35;99878.31;;;12.31;51.38
46081;BME280;31821;51.880;-0.518;2023-01-01T08:53:01;99878.81;;;12.24;51.88
46081;BME280;31821;51.880;-0.518;2023-01-01T08:55:26;99876.91;;;12.07;53.16
46081;BME280;31821;51.880;-0.518;2023-01-01T08:57:52;99895.94;;;12.09;51.66
46081;BME280;31821;51.880;-0.518;2023-01-01T09:00:17;99886.69;;;11.87;53.77
46081;BME280;31821;51.880;-0.518;2023-01-01T09:02:43;99826.00;;;11.52;54.33
46081;BME280;31821;51.880;-0.518;2023-01-01T09:05:08;99826.09;;;12.00;52.08
46081;BME280;31821;51.880;-0.518;2023-01-01T09:07:34;99838.19;;;12.25;52.64
46081;BME280;31821;51.880;-0.518;2023-01-01T09:10:00;99779.94;;;12.30;51.19
46081;BME280;31821;51.880;-0.518;2023-01-01T09:12:25;99825.97;;;12.86;50.63
46081;BME280;31821;51.880;-0.518;2023-01-01T09:14:51;99840.13;;;13.05;49.76
46081;BME280;31821;51.880;-0.518;2023-01-01T09:17:17;99821.63;;;12.97;50.02
46081;BME280;31821;51.880;-0.518;2023-01-01T09:19:42;99835.84;;;13.29;50.53
46081;BME280;31821;51.880;-0.518;2023-01-01T09:22:09;99820.13;;;13.21;50.99
46081;BME280;31821;51.880;-0.518;2023-01-01T09:24:34;99809.69;;;13.05;50.83
46081;BME280;31821;51.880;-0.518;2023-01-01T09:27:00;99858.91;;;13.00;51.89
46081;BME280;31821;51.880;-0.518;2023-01-01T09:29:25;99840.28;;;13.09;51.81
46081;BME280;31821;51.880;-0.518;2023-01-01T09:31:52;99857.56;;;13.27;52.13
46081;BME280;31821;51.880;-0.518;2023-01-01T09:34:17;99822.78;;;12.06;53.76
46081;BME280;31821;51.880;-0.518;2023-01-01T09:36:43;99834.97;;;12.44;53.38
46081;BME280;31821;51.880;-0.518;2023-01-01T09:39:13;99894.78;;;12.57;54.37
46081;BME280;31821;51.880;-0.518;2023-01-01T09:47:03;99908.44;;;13.14;52.86
46081;BME280;31821;51.880;-0.518;2023-01-01T09:49:39;99869.38;;;12.64;54.01
46081;BME280;31821;51.880;-0.518;2023-01-01T09:52:10;99863.59;;;12.99;53.39
46081;BME280;31821;51.880;-0.518;2023-01-01T09:55:03;99899.97;;;12.89;53.61
46081;BME280;31821;51.880;-0.518;2023-01-01T09:57:32;99900.94;;;13.14;52.55
46081;BME280;31821;51.880;-0.518;2023-01-01T09:59:59;99856.78;;;12.76;52.84
46081;BME280;31821;51.880;-0.518;2023-01-01T10:02:34;99899.25;;;13.01;53.02
46081;BME280;31821;51.880;-0.518;2023-01-01T10:07:54;99890.38;;;13.38;52.26
46081;BME280;31821;51.880;-0.518;2023-01-01T10:15:58;99894.53;;;13.01;52.59
46081;BME280;31821;51.880;-0.518;2023-01-01T10:18:28;99893.81;;;12.83;53.06
46081;BME280;31821;51.880;-0.518;2023-01-01T10:21:20;99965.50;;;12.67;54.39
46081;BME280;31821;51.880;-0.518;2023-01-01T10:24:04;99957.63;;;12.39;54.66
46081;BME280;31821;51.880;-0.518;2023-01-01T10:26:37;99963.44;;;12.47;56.13
46081;BME280;31821;51.880;-0.518;2023-01-01T10:29:21;99945.25;;;12.84;55.14
46081;BME280;31821;51.880;-0.518;2023-01-01T10:31:49;99928.63;;;12.54;56.05
46081;BME280;31821;51.880;-0.518;2023-01-01T10:34:26;99972.41;;;12.82;54.53
46081;BME280;31821;51.880;-0.518;2023-01-01T10:36:57;99967.91;;;13.08;55.39
46081;BME280;31821;51.880;-0.518;2023-01-01T10:39:23;99967.84;;;12.86;55.40
46081;BME280;31821;51.880;-0.518;2023-01-01T10:41:49;99949.63;;;12.85;56.37
46081;BME280;31821;51.880;-0.518;2023-01-01T10:44:20;99948.63;;;12.90;56.19
46081;BME280;31821;51.880;-0.518;2023-01-01T10:46:55;99940.94;;;12.66;56.24
46081;BME280;31821;51.880;-0.518;2023-01-01T10:49:21;99948.88;;;13.06;56.18
46081;BME280;31821;51.880;-0.518;2023-01-01T10:51:51;99894.78;;;12.87;55.41
46081;BME280;31821;51.880;-0.518;2023-01-01T10:54:37;99940.75;;;13.31;54.74
46081;BME280;31821;51.880;-0.518;2023-01-01T10:59:40;99921.06;;;13.02;54.95
46081;BME280;31821;51.880;-0.518;2023-01-01T11:02:15;99944.31;;;13.10;56.38
46081;BME280;31821;51.880;-0.518;2023-01-01T11:04:41;99884.44;;;12.76;55.07
46081;BME280;31821;51.880;-0.518;2023-01-01T11:07:06;99925.38;;;12.52;57.16
46081;BME280;31821;51.880;-0.518;2023-01-01T11:09:33;99935.47;;;13.17;55.64
46081;BME280;31821;51.880;-0.518;2023-01-01T11:12:07;99877.41;;;13.08;54.39
46081;BME280;31821;51.880;-0.518;2023-01-01T11:14:43;99957.34;;;13.31;55.23
46081;BME280;31821;51.880;-0.518;2023-01-01T11:17:20;99890.72;;;12.85;56.20
46081;BME280;31821;51.880;-0.518;2023-01-01T11:19:48;99961.44;;;13.25;56.77
46081;BME280;31821;51.880;-0.518;2023-01-01T11:22:44;99957.63;;;13.17;57.18
46081;BME280;31821;51.880;-0.518;2023-01-01T11:25:22;99890.63;;;13.24;55.49
46081;BME280;31821;51.880;-0.518;2023-01-01T11:27:50;99921.94;;;13.15;55.83
46081;BME280;31821;51.880;-0.518;2023-01-01T11:30:20;99949.50;;;13.63;55.10
46081;BME280;31821;51.880;-0.518;2023-01-01T11:32:47;99872.94;;;13.37;55.09
46081;BME280;31821;51.880;-0.518;2023-01-01T11:35:19;99950.53;;;13.92;54.85
46081;BME280;31821;51.880;-0.518;2023-01-01T11:37:46;99942.69;;;13.94;55.05
46081;BME280;31821;51.880;-0.518;2023-01-01T11:40:20;99904.75;;;14.07;54.18
46081;BME280;31821;51.880;-0.518;2023-01-01T11:42:57;99905.06;;;13.72;54.95
46081;BME280;31821;51.880;-0.518;2023-01-01T11:45:33;99884.06;;;14.17;53.34
46081;BME280;31821;51.880;-0.518;2023-01-01T11:48:05;99948.81;;;14.45;53.48
46081;BME280;31821;51.880;-0.518;2023-01-01T11:50:38;99937.75;;;14.58;53.02
46081;BME280;31821;51.880;-0.518;2023-01-01T11:55:49;99915.66;;;14.37;53.73
46081;BME280;31821;51.880;-0.518;2023-01-01T12:01:25;99910.47;;;14.97;52.15
46081;BME280;31821;51.880;-0.518;2023-01-01T12:04:06;99877.19;;;14.48;52.83
46081;BME280;31821;51.880;-0.518;2023-01-01T12:06:44;99923.56;;;14.72;53.24
46081;BME280;31821;51.880;-0.518;2023-01-01T12:09:49;99926.22;;;14.68;52.90
46081;BME280;31821;51.880;-0.518;2023-01-01T12:12:28;99906.44;;;13.99;53.61
46081;BME280;31821;51.880;-0.518;2023-01-01T12:17:46;99894.69;;;14.02;53.89
46081;BME280;31821;51.880;-0.518;2023-01-01T12:20:28;99912.91;;;13.91;55.21
46081;BME280;31821;51.880;-0.518;2023-01-01T12:22:56;99935.25;;;13.86;56.27
46081;BME280;31821;51.880;-0.518;2023-01-01T12:25:25;99902.13;;;13.77;55.50
46081;BME280;31821;51.880;-0.518;2023-01-01T12:33:32;99909.72;;;14.26;54.75
46081;BME280;31821;51.880;-0.518;2023-01-01T12:36:36;99870.56;;;14.15;53.96
46081;BME280;31821;51.880;-0.518;2023-01-01T12:44:29;99907.75;;;14.72;53.99
46081;BME280;31821;51.880;-0.518;2023-01-01T12:47:17;99852.09;;;14.44;52.91
46081;BME280;31821;51.880;-0.518;2023-01-01T13:00:40;99896.78;;;14.18;53.48
46081;BME280;31821;51.880;-0.518;2023-01-01T13:03:18;99914.13;;;14.27;53.67
46081;BME280;31821;51.880;-0.518;2023-01-01T13:05:50;99853.19;;;13.93;54.34
46081;BME280;31821;51.880;-0.518;2023-01-01T13:08:18;99855.53;;;14.04;53.92
46081;BME280;31821;51.880;-0.518;2023-01-01T13:10:46;99891.28;;;14.30;53.06
46081;BME280;31821;51.880;-0.518;2023-01-01T13:13:13;99890.38;;;14.51;52.93
46081;BME280;31821;51.880;-0.518;2023-01-01T13:18:18;99890.09;;;14.19;54.37
46081;BME280;31821;51.880;-0.518;2023-01-01T13:20:46;99892.97;;;14.22;55.24
46081;BME280;31821;51.880;-0.518;2023-01-01T13:34:39;99903.66;;;14.45;54.57
46081;BME280;31821;51.880;-0.518;2023-01-01T13:39:54;99897.88;;;14.38;55.33
46081;BME280;31821;51.880;-0.518;2023-01-01T13:42:46;99909.31;;;14.61;54.19
46081;BME280;31821;51.880;-0.518;2023-01-01T13:45:37;99892.44;;;14.41;54.31
46081;BME280;31821;51.880;-0.518;2023-01-01T13:50:46;99903.28;;;14.47;54.73
46081;BME280;31821;51.880;-0.518;2023-01-01T13:56:38;99884.34;;;13.78;55.47
46081;BME280;31821;51.880;-0.518;2023-01-01T14:02:22;99896.03;;;13.96;56.25
46081;BME280;31821;51.880;-0.518;2023-01-01T14:05:01;99802.78;;;13.54;54.87
46081;BME280;31821;51.880;-0.518;2023-01-01T14:07:40;99889.56;;;14.38;55.21
46081;BME280;31821;51.880;-0.518;2023-01-01T14:10:18;99903.41;;;14.50;54.61
46081;BME280;31821;51.880;-0.518;2023-01-01T14:12:44;99812.13;;;14.08;54.56
46081;BME280;31821;51.880;-0.518;2023-01-01T14:15:33;99864.00;;;14.57;54.41
46081;BME280;31821;51.880;-0.518;2023-01-01T14:18:01;99877.75;;;14.90;53.60
46081;BME280;31821;51.880;-0.518;2023-01-01T14:20:44;99876.97;;;14.53;54.90
46081;BME280;31821;51.880;-0.518;2023-01-01T14:23:32;99861.38;;;14.48;54.08
46081;BME280;31821;51.880;-0.518;2023-01-01T14:26:06;99879.28;;;14.63;54.60
46081;BME280;31821;51.880;-0.518;2023-01-01T14:28:34;99855.00;;;14.23;54.83
46081;BME280;31821;51.880;-0.518;2023-01-01T14:31:04;99884.69;;;14.47;54.96
46081;BME280;31821;51.880;-0.518;2023-01-01T14:33:32;99822.88;;;14.34;54.51
46081;BME280;31821;51.880;-0.518;2023-01-01T14:36:00;99844.22;;;14.21;54.83
46081;BME280;31821;51.880;-0.518;2023-01-01T14:38:33;99833.84;;;14.18;54.89
46081;BME280;31821;51.880;-0.518;2023-01-01T14:43:36;99826.44;;;13.51;56.33
46081;BME280;31821;51.880;-0.518;2023-01-01T14:46:04;99872.84;;;13.67;56.68